Urbana, IA

5:20 AM CDT on May 30, 2015 (GMT -0500)
Richland Heights Area | | Change Station
CLOSE
Current Station
Personal Weather Station
Location: Urbana, IA
Elevation: 920 ft
Nearby Weather Stations

Elev 920 ft 42.22 °N, 91.88 °W | Updated 5 minutes ago

Overcast
Overcast
62.5 °F
Feels Like 62.5 °F
N
6.0
Wind Variable Wind from NW
Gusts 12.0 mph

Today
High -- | Low -- °F
--% Chance of Precip.
Yesterday
High -- | Low -- °F
Precip. -- in
5:34 AM 8:35 PM
Waxing Gibbous, 89% visible
Pressure 29.95 in
Visibility 10.0 miles
Clouds Overcast 1000 ft
Dew Point 61 °F
Humidity 94%
Rainfall 0.33 in
Snow Depth Not available.
UV 0 out of 12
Pollen .90 out of 12
Air Quality Not available.
Flu Activity No Activity
METAR KVTI 301015Z AUTO 34008KT 10SM OVC010 17/15 A2995 RMK AO2 T01650148

More Conditions Fewer Conditions

Pressure 29.95 in
Visibility 10.0 miles
Clouds Overcast 1000 ft
Dew Point 61 °F
Humidity 94%
Rainfall 0.33 in
Snow Depth Not available.
UV 0 out of 12
Pollen .90 out of 12
Air Quality Not available.
Flu Activity No Activity
METAR KVTI 301015Z AUTO 34008KT 10SM OVC010 17/15 A2995 RMK AO2 T01650148

More Conditions Fewer Conditions

10-Day Weather Forecast

Almanac

Astronomy

May. 30, 2015 Rise Set
Actual Time
Civil Twilight
Nautical Twilight
Astronomical Twilight
Moon
Length of Visible Light
Length of Day
Tomorrow will be .
, % of the Moon is Illuminated

Today's Extremes

State Highs State Lows

Community

WunderPhotos

Upload Photos

1,825,476 photos uploaded!

WunderBlogs® & News

Nearby

Air Quality

  Air Quality AQ Index Pollutant
Not available.

Snow Depth

Station Depth Elevation

Earthquake Activity

City Distance Mag. Time & Date
Minimum magnitude displayed is 2.5.

Coastal Water Temperatures

Place Temperature

Stations

Nearby Weather Stations

Station Location Temp. Windchill Dew Point Humidity Wind Precip. Elev Updated Type